Terminal Aerodrome Forecast
Issued by NWS

Home | Current Version | Previous Version | Text Only | Print | Product List | Glossary On
Versions: 1 2 3 4 5 6 7 8 9 10 11 12 13 14 15 16 17
052
FTUS43 KMQT 091133
TAFSAW
TAF
KSAW 091133Z 0912/1012 35014G20KT 4SM -SHSN OVC025
     FM091500 35015G21KT 3SM -SHSN BLSN OVC015
     FM092100 35015G21KT 2SM -SHSN BLSN OVC015
     FM100200 35014G20KT 1 1/2SM -SHSN OVC015=

USA.gov is the U.S. government's official web portal to all federal, state and local government web resources and services.